Time;durP1;ratioP1;P1;durP2;ratioP2;P2;SDS_P1;SDS_P2;PMS_P1;PMS_P2;Temp;Humidity;BMP_temperature;BMP_pressure;BME280_temperature;BME280_humidity;BME280_pressure;Samples;Min_cycle;Max_cycle;Signal;HPM_P1;HPM_P2
2022/12/24 05:02:00;;;;;;;21.27;3.35;;;11.30;99.90;;;;;;5241990;23;20387;-71
2022/12/24 05:04:26;;;;;;;18.30;2.80;;;11.30;99.90;;;;;;4966760;28;20030;-70
2022/12/24 05:06:51;;;;;;;19.67;2.90;;;11.40;99.90;;;;;;4968260;28;20030;-71
2022/12/24 05:09:16;;;;;;;21.23;3.40;;;11.40;99.90;;;;;;4975985;28;20042;-70
2022/12/24 05:11:42;;;;;;;19.67;3.43;;;11.40;99.90;;;;;;4964804;28;20480;-71
2022/12/24 05:14:08;;;;;;;30.70;4.57;;;11.30;99.90;;;;;;4956618;29;20492;-71
2022/12/24 05:16:33;;;;;;;17.23;3.07;;;11.30;99.90;;;;;;4958471;29;20063;-70
2022/12/24 05:18:59;;;;;;;15.37;2.30;;;11.30;99.90;;;;;;4963261;28;20038;-71
2022/12/24 05:21:24;;;;;;;19.83;3.13;;;11.40;99.90;;;;;;4960346;28;20091;-72
2022/12/24 05:26:51;;;;;;;16.38;2.72;;;11.30;99.90;;;;;;4957950;29;20041;-71
2022/12/24 05:29:17;;;;;;;19.20;2.65;;;11.30;99.90;;;;;;4957613;28;20055;-70
2022/12/24 05:31:43;;;;;;;21.38;3.10;;;11.40;99.90;;;;;;4957371;28;20075;-72
2022/12/24 05:34:10;;;;;;;20.10;2.83;;;11.40;99.90;;;;;;4957362;28;20429;-71
2022/12/24 05:36:35;;;;;;;15.75;3.72;;;11.30;99.90;;;;;;4974526;28;20403;-71
2022/12/24 05:39:01;;;;;;;22.60;2.72;;;11.40;99.90;;;;;;4992063;28;20395;-71
2022/12/24 05:41:27;;;;;;;16.88;3.28;;;11.40;99.90;;;;;;4991387;28;20522;-70
2022/12/24 05:43:52;;;;;;;14.17;2.60;;;11.40;99.90;;;;;;4991343;28;20147;-71
2022/12/24 05:46:21;;;;;;;17.40;2.87;;;11.30;99.90;;;;;;4976446;28;20396;-72
2022/12/24 05:48:47;;;;;;;19.65;3.28;;;11.30;99.90;;;;;;4973701;28;20027;-70
2022/12/24 05:51:15;;;;;;;15.27;3.25;;;11.40;99.90;;;;;;4956820;28;20039;-72
2022/12/24 05:53:40;;;;;;;14.93;3.65;;;11.40;99.90;;;;;;4955728;29;20478;-72
2022/12/24 05:56:12;;;;;;;18.40;3.33;;;11.40;99.90;;;;;;4955800;29;20111;-70
2022/12/24 05:58:41;;;;;;;17.77;2.80;;;11.40;99.90;;;;;;4956642;28;20349;-71
2022/12/24 06:01:07;;;;;;;20.17;3.45;;;11.40;99.90;;;;;;4955305;28;20069;-70
2022/12/24 06:03:33;;;;;;;16.20;3.13;;;11.50;99.90;;;;;;4955383;29;20042;-71
2022/12/24 06:06:06;;;;;;;17.65;2.60;;;11.50;99.90;;;;;;4957184;28;20031;-72
2022/12/24 06:08:33;;;;;;;20.02;2.92;;;11.60;99.90;;;;;;4957215;29;20039;-71
2022/12/24 06:11:00;;;;;;;17.33;3.03;;;11.60;99.90;;;;;;4956857;28;20031;-72
2022/12/24 06:13:27;;;;;;;13.85;2.78;;;11.60;99.90;;;;;;4956950;28;20054;-71
2022/12/24 06:15:56;;;;;;;19.00;3.15;;;11.60;99.90;;;;;;4956927;28;20062;-71
2022/12/24 06:18:22;;;;;;;15.85;2.53;;;11.60;99.90;;;;;;4956720;28;20024;-72
2022/12/24 06:20:53;;;;;;;24.40;3.85;;;11.70;99.90;;;;;;4955512;28;20028;-72
2022/12/24 06:23:19;;;;;;;17.90;3.08;;;11.70;99.90;;;;;;4955432;28;20027;-71
2022/12/24 06:25:45;;;;;;;19.95;2.88;;;11.70;99.90;;;;;;4955701;29;20033;-72
2022/12/24 06:28:11;;;;;;;19.15;2.83;;;11.70;99.90;;;;;;4956488;28;20177;-71
2022/12/24 06:30:36;;;;;;;14.03;2.80;;;11.70;99.90;;;;;;4955221;28;20365;-71
2022/12/24 06:33:02;;;;;;;18.20;3.33;;;11.70;99.90;;;;;;4956493;29;20420;-71
2022/12/24 06:35:29;;;;;;;21.97;3.50;;;11.60;99.90;;;;;;4954695;29;20020;-71
2022/12/24 06:37:55;;;;;;;23.58;3.13;;;11.70;99.90;;;;;;4956197;28;20023;-70
2022/12/24 06:40:20;;;;;;;18.63;3.17;;;11.80;99.90;;;;;;4955996;28;20444;-71
2022/12/24 06:42:46;;;;;;;17.10;2.63;;;11.80;99.90;;;;;;4970724;28;20011;-72
2022/12/24 06:45:11;;;;;;;18.97;2.80;;;11.80;99.90;;;;;;4956287;29;20532;-71
2022/12/24 06:47:37;;;;;;;27.23;3.20;;;11.80;99.90;;;;;;4954637;29;20027;-71
2022/12/24 06:50:03;;;;;;;18.13;3.13;;;11.90;99.90;;;;;;4955710;29;20028;-71
2022/12/24 06:52:28;;;;;;;21.48;3.65;;;11.80;99.90;;;;;;4954371;28;20078;-71
2022/12/24 06:54:54;;;;;;;17.33;3.03;;;11.80;99.90;;;;;;4954625;29;20028;-71
2022/12/24 06:57:19;;;;;;;16.23;2.73;;;11.80;99.90;;;;;;4954574;29;20031;-70
2022/12/24 06:59:45;;;;;;;21.53;3.23;;;11.70;99.90;;;;;;4954620;29;20031;-70
2022/12/24 07:02:11;;;;;;;15.50;2.67;;;11.70;99.90;;;;;;4955705;28;20393;-71
2022/12/24 07:04:36;;;;;;;19.70;3.10;;;11.70;99.90;;;;;;4957186;28;20087;-71
2022/12/24 07:07:02;;;;;;;20.10;3.33;;;11.70;99.90;;;;;;4958555;29;20028;-71
2022/12/24 07:09:27;;;;;;;19.13;3.10;;;11.70;99.90;;;;;;4957876;28;20035;-71
2022/12/24 07:11:53;;;;;;;18.33;2.83;;;11.70;99.90;;;;;;4954696;28;20031;-71
2022/12/24 07:14:18;;;;;;;22.33;4.27;;;11.70;99.90;;;;;;4955465;28;20392;-70
2022/12/24 07:16:44;;;;;;;14.87;3.20;;;11.70;99.90;;;;;;4955330;28;20058;-70
2022/12/24 07:19:09;;;;;;;19.77;3.13;;;11.70;99.90;;;;;;4955145;28;20031;-69
2022/12/24 07:21:35;;;;;;;21.53;3.23;;;11.70;99.90;;;;;;4953799;28;20089;-70
2022/12/24 07:24:01;;;;;;;23.67;3.47;;;11.60;99.90;;;;;;4953750;29;20526;-70
2022/12/24 07:26:26;;;;;;;13.87;2.60;;;11.60;99.90;;;;;;4955218;28;20489;-70
2022/12/24 07:28:52;;;;;;;24.97;4.23;;;11.60;99.90;;;;;;4953739;28;20036;-71
2022/12/24 07:31:17;;;;;;;26.00;3.23;;;11.60;99.90;;;;;;4954912;28;20089;-70
2022/12/24 07:33:43;;;;;;;24.97;2.83;;;11.60;99.90;;;;;;4955079;28;20027;-70
2022/12/24 07:36:12;;;;;;;22.50;3.00;;;11.50;99.90;;;;;;4969337;28;20400;-71
2022/12/24 07:38:38;;;;;;;23.20;3.97;;;11.30;99.90;;;;;;4974264;28;20035;-73
2022/12/24 07:41:03;;;;;;;23.33;3.33;;;11.20;99.90;;;;;;4989390;28;20054;-72
2022/12/24 07:43:31;;;;;;;17.50;2.83;;;11.20;99.90;;;;;;4989836;28;20037;-73
2022/12/24 07:45:57;;;;;;;23.33;3.58;;;11.20;99.90;;;;;;4974466;28;20065;-72
2022/12/24 07:48:23;;;;;;;30.27;4.13;;;11.20;99.90;;;;;;4989252;28;20444;-73
2022/12/24 07:50:50;;;;;;;20.77;3.60;;;11.10;99.90;;;;;;4974014;28;20272;-72
2022/12/24 07:53:15;;;;;;;25.40;3.70;;;11.10;99.90;;;;;;4974088;28;20034;-72
2022/12/24 07:55:41;;;;;;;28.63;4.80;;;11.10;99.90;;;;;;4977222;28;20039;-72
2022/12/24 07:58:06;;;;;;;24.43;3.20;;;11.00;99.90;;;;;;4953907;29;20035;-71
2022/12/24 08:00:32;;;;;;;21.93;2.83;;;11.00;99.90;;;;;;4955789;28;20078;-72
2022/12/24 08:02:58;;;;;;;22.73;3.17;;;11.10;99.90;;;;;;4955765;28;20055;-72
2022/12/24 08:05:25;;;;;;;20.13;3.08;;;11.10;99.90;;;;;;4953324;29;20032;-71
2022/12/24 08:07:51;;;;;;;19.33;2.72;;;11.00;99.90;;;;;;4955212;28;20532;-73
2022/12/24 08:10:17;;;;;;;18.00;3.00;;;11.10;99.90;;;;;;4954034;28;20046;-71
2022/12/24 08:12:44;;;;;;;17.88;3.33;;;11.20;99.90;;;;;;4954904;28;20117;-71
2022/12/24 08:15:10;;;;;;;17.35;3.92;;;11.20;99.90;;;;;;4954751;28;20023;-71
2022/12/24 08:17:35;;;;;;;17.55;3.33;;;11.20;99.90;;;;;;4954764;28;20158;-72
2022/12/24 08:20:01;;;;;;;20.47;3.03;;;11.30;99.90;;;;;;4953439;29;20039;-72
2022/12/24 08:22:27;;;;;;;18.33;3.25;;;11.30;99.90;;;;;;4953342;28;20440;-72
2022/12/24 08:24:52;;;;;;;20.07;3.93;;;11.30;99.90;;;;;;4954409;28;20452;-72
2022/12/24 08:27:18;;;;;;;21.47;4.03;;;11.40;99.90;;;;;;4954423;28;20118;-71
2022/12/24 08:29:43;;;;;;;19.00;3.30;;;11.30;99.90;;;;;;4954615;29;20032;-71
2022/12/24 08:32:09;;;;;;;19.53;2.93;;;11.40;99.90;;;;;;4954588;28;20023;-70
2022/12/24 08:34:34;;;;;;;24.33;3.90;;;11.50;99.90;;;;;;4951134;29;20074;-70
2022/12/24 08:37:00;;;;;;;22.70;3.57;;;11.60;99.90;;;;;;4954147;28;20071;-70
2022/12/24 08:39:25;;;;;;;18.63;3.30;;;11.60;99.90;;;;;;4954620;28;20065;-71
2022/12/24 08:41:51;;;;;;;26.27;4.63;;;11.60;99.90;;;;;;4957342;28;20034;-71
2022/12/24 08:44:17;;;;;;;16.50;3.77;;;11.60;99.90;;;;;;4956786;29;20058;-71
2022/12/24 08:46:42;;;;;;;17.43;2.97;;;11.50;99.90;;;;;;4957997;28;20438;-70
2022/12/24 08:49:08;;;;;;;19.57;3.67;;;11.30;99.90;;;;;;4956387;29;20069;-70
2022/12/24 08:51:33;;;;;;;21.27;3.63;;;11.40;99.90;;;;;;4957950;28;20480;-72
2022/12/24 08:53:59;;;;;;;17.43;2.83;;;11.30;99.90;;;;;;4959996;29;20035;-70
2022/12/24 08:56:24;;;;;;;22.30;4.07;;;11.40;99.90;;;;;;4961588;29;20389;-70
2022/12/24 08:58:50;;;;;;;23.83;3.10;;;11.50;99.90;;;;;;4959816;29;20441;-69
2022/12/24 09:01:17;;;;;;;17.70;3.70;;;11.60;99.90;;;;;;4958308;28;20138;-71
2022/12/24 09:03:43;;;;;;;21.55;3.33;;;11.60;99.90;;;;;;4956653;29;20114;-71
2022/12/24 09:06:09;;;;;;;20.63;2.90;;;11.70;99.90;;;;;;4956455;28;20225;-70
2022/12/24 09:08:35;;;;;;;18.80;2.65;;;11.90;99.90;;;;;;4966774;28;20279;-71
2022/12/24 09:11:05;;;;;;;16.23;3.50;;;12.00;99.90;;;;;;4957766;28;20062;-71
2022/12/24 09:13:30;;;;;;;20.30;3.03;;;12.20;99.90;;;;;;4956648;29;20019;-71
2022/12/24 09:15:56;;;;;;;21.53;3.73;;;12.20;99.90;;;;;;4957530;28;20024;-71
2022/12/24 09:18:22;;;;;;;12.60;2.90;;;12.20;99.90;;;;;;4957210;29;20139;-70
2022/12/24 09:20:47;;;;;;;23.63;3.53;;;12.00;99.90;;;;;;4956182;28;20043;-69
2022/12/24 09:23:13;;;;;;;14.70;2.97;;;12.10;99.90;;;;;;4956130;29;20098;-69
2022/12/24 09:25:42;;;;;;;16.85;3.05;;;12.20;99.90;;;;;;4957009;28;20035;-69
2022/12/24 09:28:08;;;;;;;17.88;2.90;;;12.20;99.90;;;;;;4958001;28;20094;-70
2022/12/24 09:30:35;;;;;;;15.20;2.97;;;12.20;99.90;;;;;;4958006;28;20039;-73
2022/12/24 09:33:02;;;;;;;16.08;4.65;;;12.10;99.90;;;;;;4957772;29;20047;-74
2022/12/24 09:35:27;;;;;;;14.45;2.75;;;12.00;99.90;;;;;;4958651;28;20079;-73
2022/12/24 09:38:01;;;;;;;16.10;3.00;;;11.90;99.90;;;;;;4957865;29;20027;-76
2022/12/24 09:40:36;;;;;;;22.35;4.03;;;11.70;99.90;;;;;;4966364;28;20259;-73
2022/12/24 09:43:12;;;;;;;19.85;2.88;;;11.60;99.90;;;;;;4958478;29;20030;-75
2022/12/24 09:45:40;;;;;;;19.40;3.42;;;11.40;99.90;;;;;;4972418;28;20038;-76
2022/12/24 09:48:22;;;;;;;17.08;3.65;;;11.30;99.90;;;;;;4972458;28;20122;-75
2022/12/24 09:50:57;;;;;;;20.52;2.80;;;11.20;99.90;;;;;;4955835;28;20034;-74
2022/12/24 09:53:38;;;;;;;23.85;4.35;;;11.20;99.90;;;;;;4954818;28;20118;-75
2022/12/24 09:56:14;;;;;;;16.58;2.92;;;11.30;99.90;;;;;;4938153;29;20035;-75
2022/12/24 09:58:44;;;;;;;17.23;3.72;;;11.20;99.90;;;;;;4957503;28;20031;-76
2022/12/24 10:01:15;;;;;;;20.35;4.40;;;11.20;99.90;;;;;;4956506;28;20120;-78
2022/12/24 10:03:40;;;;;;;20.27;3.38;;;11.00;99.90;;;;;;4956339;29;20065;-76
2022/12/24 10:06:14;;;;;;;22.00;3.53;;;10.90;99.90;;;;;;4957207;28;20055;-73
2022/12/24 10:09:01;;;;;;;21.85;3.83;;;10.90;99.90;;;;;;4957204;28;20476;-73
2022/12/24 10:11:49;;;;;;;30.13;4.45;;;10.90;99.90;;;;;;4952587;28;20038;-73
2022/12/24 10:14:52;;;;;;;23.08;3.75;;;10.90;99.90;;;;;;4937340;29;20063;-74
2022/12/24 10:17:27;;;;;;;21.77;3.72;;;10.90;99.90;;;;;;4937655;29;20028;-70
2022/12/24 10:20:14;;;;;;;21.60;4.25;;;10.90;99.90;;;;;;4940114;29;20058;-68
2022/12/24 10:23:16;;;;;;;23.52;3.50;;;10.80;99.90;;;;;;4936822;29;20527;-70
2022/12/24 10:26:07;;;;;;;24.35;4.13;;;10.80;99.90;;;;;;4928545;29;20493;-73
2022/12/24 10:28:51;;;;;;;18.25;3.40;;;10.90;99.90;;;;;;4937198;29;20024;-75
2022/12/24 10:31:21;;;;;;;22.70;4.30;;;10.90;99.90;;;;;;4940782;29;20029;-70
2022/12/24 10:33:54;;;;;;;22.77;3.88;;;10.80;99.90;;;;;;4951143;29;20028;-70
2022/12/24 10:36:30;;;;;;;22.35;3.90;;;10.90;99.90;;;;;;4952211;29;20031;-71
2022/12/24 10:38:56;;;;;;;21.75;4.13;;;10.90;99.90;;;;;;4953915;28;20365;-71
2022/12/24 10:41:25;;;;;;;25.55;4.05;;;10.90;99.90;;;;;;4948164;28;20122;-70
2022/12/24 10:43:51;;;;;;;22.33;4.10;;;10.90;99.90;;;;;;4951300;29;20102;-70
2022/12/24 10:46:33;;;;;;;19.50;3.92;;;11.00;99.90;;;;;;4954589;29;20137;-71
2022/12/24 10:49:18;;;;;;;24.42;4.13;;;10.90;99.90;;;;;;4954829;28;20058;-70
2022/12/24 10:51:53;;;;;;;25.10;3.80;;;11.00;99.90;;;;;;4953857;28;20106;-70
2022/12/24 10:54:22;;;;;;;22.35;4.07;;;11.10;99.90;;;;;;4955159;28;20038;-69
2022/12/24 10:56:51;;;;;;;20.80;4.00;;;11.20;99.90;;;;;;4955487;28;20063;-69
2022/12/24 10:59:41;;;;;;;27.52;4.38;;;11.40;99.90;;;;;;4954837;29;20023;-70
2022/12/24 11:02:32;;;;;;;24.92;4.07;;;11.60;99.90;;;;;;4953715;28;20217;-69
2022/12/24 11:04:59;;;;;;;20.40;4.60;;;11.70;99.90;;;;;;4955943;28;20105;-71
2022/12/24 11:07:27;;;;;;;23.00;4.53;;;11.60;99.90;;;;;;4943343;28;20055;-71
2022/12/24 11:10:06;;;;;;;26.52;4.43;;;11.60;99.90;;;;;;4956093;28;20074;-71
2022/12/24 11:12:38;;;;;;;20.05;4.05;;;11.70;99.90;;;;;;4960554;28;20035;-71
2022/12/24 11:15:17;;;;;;;26.25;4.35;;;11.80;99.90;;;;;;4984525;23;21598;-71
2022/12/24 11:17:53;;;;;;;21.08;3.88;;;11.50;99.90;;;;;;4958052;28;20031;-69
2022/12/24 11:20:23;;;;;;;24.80;5.05;;;11.50;99.90;;;;;;4954210;28;20023;-69
2022/12/24 11:22:49;;;;;;;23.30;3.72;;;11.50;99.90;;;;;;4954450;29;20055;-70
2022/12/24 11:25:33;;;;;;;28.02;4.00;;;11.50;99.90;;;;;;4955984;28;20023;-71
2022/12/24 11:28:19;;;;;;;23.52;4.28;;;11.70;99.90;;;;;;4938084;29;20040;-73
2022/12/24 11:30:56;;;;;;;19.75;4.50;;;11.70;99.90;;;;;;4953845;28;20024;-72
2022/12/24 11:33:22;;;;;;;19.10;3.78;;;11.70;99.90;;;;;;4955041;28;20484;-74
2022/12/24 11:35:52;;;;;;;27.98;4.20;;;11.80;99.90;;;;;;4954829;28;20389;-74
2022/12/24 11:38:26;;;;;;;20.98;3.58;;;11.90;99.90;;;;;;4970899;28;20027;-74
2022/12/24 11:41:10;;;;;;;25.52;5.07;;;12.00;99.90;;;;;;4954883;29;20058;-73
2022/12/24 11:43:47;;;;;;;23.13;3.60;;;11.80;99.90;;;;;;4954882;28;20055;-74
2022/12/24 11:46:17;;;;;;;19.92;3.75;;;11.60;99.90;;;;;;4955531;29;20027;-72
2022/12/24 11:48:44;;;;;;;14.50;3.25;;;11.60;99.90;;;;;;4956501;28;20027;-73
2022/12/24 11:51:26;;;;;;;;;;;11.60;99.90;;;;;;4958390;28;20077;-72
2022/12/24 11:54:03;;;;;;;24.63;4.32;;;11.40;99.90;;;;;;4970522;28;19973;-69
2022/12/24 11:56:32;;;;;;;;;;;11.50;99.90;;;;;;4954512;29;20050;-70
2022/12/24 11:59:21;;;;;;;21.88;3.80;;;11.60;99.90;;;;;;4969684;28;19906;-72
2022/12/24 12:01:55;;;;;;;16.55;3.35;;;11.70;99.90;;;;;;4949419;29;20504;-70
2022/12/24 12:04:26;;;;;;;24.38;3.95;;;11.90;99.90;;;;;;4950622;29;20028;-70
2022/12/24 12:07:00;;;;;;;20.80;3.35;;;11.90;99.90;;;;;;4936124;29;20499;-70
2022/12/24 12:09:32;;;;;;;22.67;4.82;;;11.80;99.90;;;;;;4936150;29;20054;-70
2022/12/24 12:12:04;;;;;;;17.95;3.70;;;11.90;99.90;;;;;;4934834;29;20118;-70
2022/12/24 12:14:37;;;;;;;27.00;5.47;;;11.90;99.90;;;;;;4937997;28;20125;-70
2022/12/24 12:17:23;;;;;;;19.80;4.07;;;12.10;99.90;;;;;;4956978;29;20027;-69
2022/12/24 12:19:57;;;;;;;20.92;4.28;;;12.10;99.90;;;;;;4958190;29;20055;-70
2022/12/24 12:22:31;;;;;;;20.85;3.70;;;12.20;99.90;;;;;;4959485;28;20034;-71
2022/12/24 12:24:59;;;;;;;18.48;3.63;;;12.30;99.90;;;;;;4958229;29;20031;-71
2022/12/24 12:27:38;;;;;;;15.25;3.47;;;12.50;99.90;;;;;;4957972;29;20144;-69
2022/12/24 12:30:10;;;;;;;19.55;3.53;;;12.70;99.90;;;;;;4959142;29;20070;-70
2022/12/24 12:32:47;;;;;;;22.80;4.90;;;12.70;99.90;;;;;;4959654;28;20114;-69
2022/12/24 12:35:32;;;;;;;12.07;3.67;;;12.80;99.90;;;;;;4958010;29;20023;-68
2022/12/24 12:38:10;;;;;;;18.15;4.15;;;12.70;99.90;;;;;;4938848;29;20032;-71
2022/12/24 12:40:48;;;;;;;16.08;2.90;;;12.50;99.90;;;;;;4939007;29;20511;-73
2022/12/24 12:43:21;;;;;;;18.65;3.40;;;12.50;99.90;;;;;;4938518;29;20027;-68
2022/12/24 12:45:55;;;;;;;19.77;3.50;;;12.40;99.90;;;;;;4952958;29;20027;-70
2022/12/24 12:48:39;;;;;;;20.00;3.50;;;12.40;99.90;;;;;;4960918;28;20058;-70
2022/12/24 12:51:11;;;;;;;20.60;3.97;;;12.50;99.90;;;;;;4960366;28;20032;-71
2022/12/24 12:54:00;;;;;;;14.63;2.92;;;12.60;99.90;;;;;;4959138;28;20090;-70
2022/12/24 12:56:35;;;;;;;16.33;3.53;;;12.50;99.90;;;;;;4960848;28;20019;-70
2022/12/24 12:59:09;;;;;;;14.32;3.20;;;12.60;99.90;;;;;;4958776;28;20026;-68
2022/12/24 13:02:12;;;;;;;12.98;3.15;;;12.60;99.90;;;;;;4953056;29;20047;-70
2022/12/24 13:04:52;;;;;;;15.88;2.75;;;12.50;99.90;;;;;;4939466;29;20166;-70
2022/12/24 13:07:32;;;;;;;20.40;3.05;;;12.60;99.90;;;;;;4940217;29;20059;-71
2022/12/24 13:10:07;;;;;;;13.07;2.58;;;12.60;99.90;;;;;;4940311;29;20031;-69
2022/12/24 13:12:49;;;;;;;15.73;3.03;;;12.70;99.90;;;;;;4938118;29;20031;-70
2022/12/24 13:15:58;;;;;;;16.55;3.05;;;12.80;99.90;;;;;;4945537;29;20031;-70
2022/12/24 13:19:07;;;;;;;16.27;2.97;;;12.70;99.90;;;;;;4953350;28;20055;-70
2022/12/24 13:21:33;;;;;;;17.10;3.47;;;12.80;99.90;;;;;;4938063;29;20059;-70
2022/12/24 13:24:21;;;;;;;16.88;2.90;;;12.80;99.90;;;;;;4954177;29;20040;-70
2022/12/24 13:27:17;;;;;;;16.50;3.65;;;12.70;99.90;;;;;;4937274;29;20381;-70
2022/12/24 13:29:52;;;;;;;17.77;3.95;;;12.60;99.90;;;;;;4955778;29;20031;-69
2022/12/24 13:32:20;;;;;;;16.67;2.85;;;12.50;99.90;;;;;;4958094;28;20105;-73
2022/12/24 13:34:49;;;;;;;19.67;3.55;;;12.40;99.90;;;;;;4958908;28;20027;-74
2022/12/24 13:37:34;;;;;;;22.00;4.30;;;12.50;99.90;;;;;;4957632;29;20476;-73
2022/12/24 13:40:09;;;;;;;19.58;4.85;;;12.30;99.90;;;;;;4957545;29;20373;-73
2022/12/24 13:43:00;;;;;;;24.02;4.82;;;12.20;99.90;;;;;;4956920;29;20034;-71
2022/12/24 13:45:28;;;;;;;22.85;3.90;;;12.10;99.90;;;;;;4956043;29;20027;-71
2022/12/24 13:47:57;;;;;;;20.15;3.83;;;12.10;99.90;;;;;;4957986;28;20379;-74
2022/12/24 13:50:44;;;;;;;21.20;4.30;;;12.10;99.90;;;;;;4956202;28;20031;-70
2022/12/24 13:53:39;;;;;;;19.58;3.88;;;12.10;99.90;;;;;;4956434;29;20027;-70
2022/12/24 13:56:11;;;;;;;16.23;4.20;;;12.10;99.90;;;;;;4952966;29;20035;-73
2022/12/24 13:58:40;;;;;;;22.08;5.05;;;12.10;99.90;;;;;;4937732;28;20031;-74
2022/12/24 14:01:11;;;;;;;18.73;4.50;;;12.20;99.90;;;;;;4953353;29;20381;-71
2022/12/24 14:03:40;;;;;;;21.88;5.70;;;12.20;99.90;;;;;;4955604;29;20079;-73
2022/12/24 14:06:12;;;;;;;21.05;5.10;;;12.10;99.90;;;;;;4957364;29;20117;-72
2022/12/24 14:08:44;;;;;;;17.35;3.47;;;12.00;99.90;;;;;;4956711;28;20035;-76
2022/12/24 14:11:24;;;;;;;25.38;4.05;;;12.10;99.90;;;;;;4957729;28;20038;-72
2022/12/24 14:13:53;;;;;;;18.95;4.38;;;12.10;99.90;;;;;;4957082;28;20395;-72
2022/12/24 14:16:42;;;;;;;16.40;3.90;;;12.10;99.90;;;;;;4957311;28;20400;-73
2022/12/24 14:19:26;;;;;;;17.27;4.15;;;12.10;99.90;;;;;;4957434;28;20062;-73
2022/12/24 14:21:58;;;;;;;16.55;4.22;;;12.10;99.90;;;;;;4955699;28;20034;-73
2022/12/24 14:24:33;;;;;;;14.23;3.85;;;12.10;99.90;;;;;;4936521;29;20027;-74
2022/12/24 14:27:11;;;;;;;16.40;5.38;;;12.10;99.90;;;;;;4936474;29;20032;-73
2022/12/24 14:29:47;;;;;;;12.35;3.90;;;12.10;99.90;;;;;;4938402;29;20032;-73
2022/12/24 14:32:15;;;;;;;16.63;4.30;;;12.10;99.90;;;;;;4939387;29;20032;-73
2022/12/24 14:34:40;;;;;;;16.08;3.70;;;12.20;99.90;;;;;;4955747;29;20396;-72
2022/12/24 14:37:08;;;;;;;18.97;4.43;;;12.20;99.90;;;;;;4956235;29;20024;-72
2022/12/24 14:39:37;;;;;;;15.63;4.15;;;12.20;99.90;;;;;;4956196;28;20259;-72
2022/12/24 14:42:41;;;;;;;18.55;4.43;;;12.00;99.90;;;;;;4955632;28;20029;-73
2022/12/24 14:45:18;;;;;;;20.33;4.78;;;12.00;99.90;;;;;;4955544;28;20463;-74
2022/12/24 14:48:02;;;;;;;16.48;5.15;;;12.00;99.90;;;;;;4948226;28;20028;-73
2022/12/24 14:50:53;;;;;;;17.02;4.90;;;12.00;99.90;;;;;;4937115;29;20032;-67
2022/12/24 14:53:39;;;;;;;19.55;4.13;;;12.10;99.90;;;;;;4952319;28;20039;-67
2022/12/24 14:56:13;;;;;;;18.98;4.75;;;12.00;99.90;;;;;;4935982;29;20516;-67
2022/12/24 14:58:39;;;;;;;16.70;4.30;;;12.00;99.90;;;;;;4936939;29;20036;-73
2022/12/24 15:01:20;;;;;;;21.38;4.28;;;12.00;99.90;;;;;;4953300;28;20115;-71
2022/12/24 15:03:58;;;;;;;17.90;4.03;;;12.00;99.90;;;;;;4935576;29;20043;-71
2022/12/24 15:06:23;;;;;;;24.30;4.30;;;12.00;99.90;;;;;;4952149;29;20062;-70
2022/12/24 15:08:49;;;;;;;19.87;5.03;;;12.00;99.90;;;;;;4957201;28;20483;-71
2022/12/24 15:11:21;;;;;;;18.73;4.53;;;12.00;99.90;;;;;;4956143;28;20042;-70
2022/12/24 15:13:52;;;;;;;16.33;4.18;;;11.90;99.90;;;;;;4955944;28;20227;-70
2022/12/24 15:16:28;;;;;;;15.68;3.92;;;11.90;99.90;;;;;;4955080;29;20038;-71
2022/12/24 15:19:03;;;;;;;16.55;4.03;;;11.80;99.90;;;;;;4954633;29;20038;-71
2022/12/24 15:21:36;;;;;;;16.13;4.90;;;11.80;99.90;;;;;;4955330;29;20508;-71
2022/12/24 15:24:02;;;;;;;15.07;3.60;;;11.80;99.90;;;;;;4938636;29;20028;-71
2022/12/24 15:26:31;;;;;;;17.52;3.65;;;11.80;99.90;;;;;;4936324;29;20062;-72
2022/12/24 15:28:59;;;;;;;19.30;4.38;;;11.80;99.90;;;;;;4937527;29;20035;-71
2022/12/24 15:31:26;;;;;;;16.65;3.88;;;11.80;99.90;;;;;;4936187;29;20425;-72
2022/12/24 15:33:55;;;;;;;14.32;4.03;;;11.80;99.90;;;;;;4935354;29;20024;-72
2022/12/24 15:36:35;;;;;;;15.77;3.97;;;11.80;99.90;;;;;;4937078;29;20040;-72
2022/12/24 15:39:16;;;;;;;12.88;4.20;;;11.80;99.90;;;;;;4937426;29;20512;-72
2022/12/24 15:44:33;;;;;;;17.98;4.13;;;11.70;99.90;;;;;;4937681;29;20087;-71
2022/12/24 15:46:59;;;;;;;17.42;4.35;;;11.80;99.90;;;;;;4936328;29;20400;-70
2022/12/24 15:49:26;;;;;;;;;;;11.90;99.90;;;;;;4935967;29;20114;-71
2022/12/24 15:51:52;;;;;;;14.93;3.45;;;11.80;99.90;;;;;;4935405;29;19958;-71
2022/12/24 15:54:21;;;;;;;16.87;4.37;;;11.80;99.90;;;;;;4954012;29;20031;-71
2022/12/24 15:56:47;;;;;;;14.93;4.05;;;11.90;99.90;;;;;;4954592;28;20259;-72
2022/12/24 15:59:18;;;;;;;12.18;3.70;;;11.90;99.90;;;;;;4954425;28;20484;-72
2022/12/24 16:01:45;;;;;;;14.02;3.55;;;11.90;99.90;;;;;;4954490;29;20038;-72
2022/12/24 16:04:14;;;;;;;11.70;3.47;;;11.90;99.90;;;;;;4955239;29;20054;-72
2022/12/24 16:07:03;;;;;;;11.43;3.30;;;11.90;99.90;;;;;;4955581;28;20500;-72
2022/12/24 16:09:41;;;;;;;13.50;3.40;;;11.90;99.90;;;;;;4954596;29;20690;-72
2022/12/24 16:12:19;;;;;;;12.23;3.22;;;11.80;99.90;;;;;;4953753;29;20119;-71
2022/12/24 16:14:51;;;;;;;10.73;4.00;;;11.70;99.90;;;;;;4935882;29;20362;-71
2022/12/24 16:17:23;;;;;;;10.35;3.22;;;11.80;99.90;;;;;;4953757;29;20039;-71
2022/12/24 16:19:55;;;;;;;11.18;3.20;;;11.80;99.90;;;;;;4954789;29;20028;-71
2022/12/24 16:22:31;;;;;;;14.10;3.40;;;11.90;99.90;;;;;;4951783;29;20024;-71
2022/12/24 16:25:20;;;;;;;14.38;3.50;;;11.90;99.90;;;;;;4936118;29;20027;-71
2022/12/24 16:27:45;;;;;;;13.35;3.88;;;11.90;99.90;;;;;;4938548;29;20027;-71
2022/12/24 16:30:11;;;;;;;14.47;3.20;;;11.90;99.90;;;;;;4958542;28;20038;-71
2022/12/24 16:32:39;;;;;;;14.30;3.72;;;11.80;99.90;;;;;;4959853;29;20107;-70
2022/12/24 16:35:11;;;;;;;13.18;3.38;;;11.80;99.90;;;;;;4957759;29;20469;-71
2022/12/24 16:37:38;;;;;;;14.38;3.63;;;11.80;99.90;;;;;;4956121;28;20118;-72
2022/12/24 16:40:03;;;;;;;;;;;11.80;99.90;;;;;;4956751;28;20035;-72
2022/12/24 16:45:13;;;;;;;12.23;3.83;;;11.80;99.90;;;;;;4950522;29;20038;-72
2022/12/24 16:47:39;;;;;;;14.83;3.93;;;11.80;99.90;;;;;;4954520;29;20035;-72
2022/12/24 16:50:07;;;;;;;8.43;3.63;;;11.60;99.90;;;;;;4954062;29;20473;-70
2022/12/24 16:52:33;;;;;;;10.40;3.22;;;11.70;99.90;;;;;;4949824;29;20036;-72
2022/12/24 16:54:59;;;;;;;13.38;3.88;;;11.70;99.90;;;;;;4945444;29;20038;-72
2022/12/24 16:57:26;;;;;;;12.18;3.45;;;11.70;99.90;;;;;;4955159;28;20045;-72
2022/12/24 16:59:52;;;;;;;14.48;3.58;;;11.80;99.90;;;;;;4954602;29;20027;-72
2022/12/24 17:02:20;;;;;;;13.05;4.00;;;11.70;99.90;;;;;;4956936;28;20023;-72
2022/12/24 17:04:46;;;;;;;15.32;3.45;;;11.80;99.90;;;;;;4957107;29;20049;-72
2022/12/24 17:07:14;;;;;;;12.07;4.00;;;11.70;99.90;;;;;;4958336;28;20110;-72
2022/12/24 17:09:40;;;;;;;9.77;3.55;;;11.70;99.90;;;;;;4958133;28;20043;-72
2022/12/24 17:12:06;;;;;;;8.82;3.85;;;11.70;99.90;;;;;;4957349;28;20027;-71
2022/12/24 17:14:32;;;;;;;11.30;3.97;;;11.80;99.90;;;;;;4957514;29;20027;-71
2022/12/24 17:16:58;;;;;;;8.03;3.17;;;11.70;99.90;;;;;;4977699;23;20043;-69
2022/12/24 17:19:23;;;;;;;8.77;3.10;;;11.70;99.90;;;;;;4949994;28;20526;-68
2022/12/24 17:21:49;;;;;;;11.95;3.38;;;11.60;99.90;;;;;;4957594;28;20106;-68
2022/12/24 17:24:14;;;;;;;12.93;3.70;;;11.60;99.90;;;;;;4957431;28;20493;-69
2022/12/24 17:26:42;;;;;;;11.50;3.03;;;11.60;99.90;;;;;;4957810;29;20051;-68
2022/12/24 17:29:08;;;;;;;12.82;4.05;;;11.70;99.90;;;;;;4956004;29;20031;-68
2022/12/24 17:31:33;;;;;;;14.45;3.92;;;11.70;99.90;;;;;;4956066;29;20416;-68
2022/12/24 17:33:59;;;;;;;10.30;3.70;;;11.70;99.90;;;;;;4956021;29;20041;-68
2022/12/24 17:36:25;;;;;;;15.13;4.20;;;11.70;99.90;;;;;;4957231;28;20087;-69
2022/12/24 17:38:51;;;;;;;12.48;3.95;;;11.60;99.90;;;;;;4957244;28;20492;-68
2022/12/24 17:41:18;;;;;;;9.57;3.53;;;11.60;99.90;;;;;;4957086;28;20023;-67
2022/12/24 17:43:45;;;;;;;9.32;3.20;;;11.60;99.90;;;;;;4956671;28;20515;-68
2022/12/24 17:46:12;;;;;;;;;;;11.60;99.90;;;;;;4957492;28;20086;-68
2022/12/24 17:48:37;;;;;;;9.20;3.15;;;11.60;99.90;;;;;;4956740;28;20335;-68
2022/12/24 17:51:08;;;;;;;10.67;3.40;;;11.60;99.90;;;;;;4956025;29;20023;-68
2022/12/24 17:53:34;;;;;;;9.70;2.97;;;11.60;99.90;;;;;;4955511;28;20286;-68
2022/12/24 17:56:00;;;;;;;;;;;11.60;99.90;;;;;;4955986;29;20035;-67
2022/12/24 17:58:26;;;;;;;7.68;2.65;;;11.60;99.90;;;;;;4956830;28;20323;-68
2022/12/24 18:00:54;;;;;;;;;;;11.60;99.90;;;;;;4957430;28;20038;-68
2022/12/24 18:03:19;;;;;;;9.20;3.17;;;11.60;99.90;;;;;;4956504;28;19913;-68
2022/12/24 18:05:45;;;;;;;6.25;2.58;;;11.60;99.90;;;;;;4956361;28;20027;-69
2022/12/24 18:08:11;;;;;;;6.67;3.20;;;11.60;99.90;;;;;;4956919;28;20027;-68